Tropical Cyclones
[Index]
Main Index Home Page Stock Weather Photos Extreme Storms Discussion Storm News and Storm Chasing Reports Tropical Cyclones / Hurricanes / Typhoons Weather Data and Links Wild Fires / Bushfires Weather Observation Techniques Weather Picture Catalogue Tornado Pictures and Reports Stock Video Footage and DVDs for sale
Season 2008-2009 Tropical Cyclone ANIKA Track Map
Season 2008-2009 Summaries: [BoM-AU] [JTWC-AU] [JTWC-SIO] [JTWC-SPAC] [JTWC-SH]
<<- Previous TC | BoM 2008-2009 Season | Next TC ->>

click for intensity scale information  Lat/long Grid: Show Hide

 Date Labels: Show Hide

Bureau of Meteorology Tropical Cyclone Data

Name: ANIKA
Number: 919 / 200809_02

17 Nov 2008 12:00 UTC to 22 Nov 2008 00:00 UTC

    date/time    lat    long    hPa   cat  kts
2008-11-17 12    8.1    89.4   1005         20          
2008-11-17 15    8.1    89.4                            
2008-11-17 18    8.4    90.1   1004         25          
2008-11-17 19    8.5    90.1                            
2008-11-17 22    8.7    91.0                            
2008-11-18 00    8.9    91.3   1004         25          
2008-11-18 05    9.4    92.4                            
2008-11-18 06    9.5    92.5   1004         25          
2008-11-18 07    9.7    92.8                            
2008-11-18 08    9.8    92.9                            
2008-11-18 11   10.1    93.8                            
2008-11-18 11   10.1    93.8                            
2008-11-18 12   10.1    93.8   1004         25          
2008-11-18 13   10.2    94.3                            
2008-11-18 18   10.5    95.3   1000         30          
2008-11-18 22   10.8    96.5                            
2008-11-18 23   10.8    96.7                            
2008-11-19 00   10.9    96.8    995    1    40          
2008-11-19 02   11.2    97.2                            
2008-11-19 06   11.5    98.0    995    1    40          
2008-11-19 07   11.5    97.9                            
2008-11-19 11   11.7    98.8                            
2008-11-19 11   11.8    99.0                            
2008-11-19 12   11.9    99.1    992    1    45          
2008-11-19 18   12.7   100.3    990    1    50          
2008-11-19 19   12.8   100.5                            
2008-11-19 22   13.4   101.2                            
2008-11-20 00   13.6   101.5    990    1    50          
2008-11-20 00   13.8   101.8                            
2008-11-20 06   14.6   102.7    990    1    50          
2008-11-20 06   14.7   102.8                            
2008-11-20 07   14.8   102.9                            
2008-11-20 10   15.0   103.8                            
2008-11-20 11   15.1   103.9                            
2008-11-20 12   15.1   104.0    990    1    50          
2008-11-20 18   15.4   105.1    996         40          
2008-11-20 22   15.4   105.8                            
2008-11-20 23   15.6   106.4                            
2008-11-21 00   15.7   106.4   1002         30          
2008-11-21 01   16.0   106.7                            
2008-11-21 05   16.3   107.3                            
2008-11-21 06   16.4   107.4   1004         25          
2008-11-21 07   16.6   107.6                            
2008-11-21 10   16.7   108.1                            
2008-11-21 11   16.8   108.3                            
2008-11-21 12   16.8   108.4   1004         25          
2008-11-21 18   17.0   109.4   1004         25          
2008-11-22 00   17.2   110.5   1004         25          
2008-11-22 00   17.2   110.6                            
Winds are 10-min average.

Tropical cyclone tracks developed by Michael Bath using data from the Bureau of Meteorology and Google Maps.


[Australian Severe Weather index] [Copyright Notice] [Email Contacts] [Search This Site] [Privacy Policy]
Document: tropical_cyclone_anika.htm Updated: 29 June 2017